Brussel, Belgium

8:27 AM CET op 21 februari 2017 (GMT +0100)
Brussels | | Change Station

Hoogte 190 ft 50.90 °N, 4.53 °E | Updated 7 minutes ago

Rain
Regen
50 °F
Voelt als 50 °F
N
12
Wind Variabel Wind van west

Vandaag
Hoog -- | Laag -- °F
--% Kans op neerslag
Gisteren
Hoog -- | Laag -- °F
Precip. -- inches
Druk 30.01 inches
Zicht 1.9 mijlen
Wolken Merendeels bewolkt 700 ft
Dauwpunt 48 °F
Vochtigheid 94%
Neerslag 0.00 inches
Dikte sneeuw Niet beschikbaar.
7:42 AM 6:09 PM
Afnemende halvemaan, 27% visible
METAR EBBR 210720Z 26010KT 3000 RA BKN007 10/09 Q1016 BECMG 6000 -RA
Druk 30.01 inches
Zicht 1.9 mijlen
Wolken Merendeels bewolkt 700 ft
Dauwpunt 48 °F
Vochtigheid 94%
Neerslag 0.00 inches
Dikte sneeuw Niet beschikbaar.
7:42 AM 6:09 PM
Afnemende halvemaan, 27% visible
METAR EBBR 210720Z 26010KT 3000 RA BKN007 10/09 Q1016 BECMG 6000 -RA

Get Your Daily Forecast Email!

Thanks for signing up!

Be on the lookout for a verification email in your inbox.

You'll start receiving the daily forecast at 8 AM.

×

10-Day Weather Forecast

×

Almanac

Astronomie

Feb. 21, 2017 Opkomst Ondergang
Werkelijke tijd
Burgerlijke schemering
Nautische schemering
Astronomische schemering
Maan
Golflengte van het zichtbare licht
Daglengte
Tomorrow will be .
, % of the Moon is Illuminated

Extremen vandaag

Country Highs Country Lows

Community

WunderPhotos

Upload Photos

1,962,540 foto’s ge-upload!

WunderBlog® & News

Nearby

Luchtkwaliteit

  Luchtkwaliteit LK-index Verontreinigende stof
Not available.

Dikte sneeuw

Station Depth Geometrische hoogte

Aardbevingen

Stad Distance Mag. Time & Date
Minimum magnitude displayed is 2.5.

Watertemperatuur langs de kust

Plaats Temperatuur

Stations

Nabije weerstations

Locatie station Temp. Gevoelstemperatuur Dauwpunt Vochtigheid Wind Precip. Hoogte Geactualiseerd Type